Time;durP1;ratioP1;P1;durP2;ratioP2;P2;SDS_P1;SDS_P2;PMS_P1;PMS_P2;Temp;Humidity;BMP_temperature;BMP_pressure;BME280_temperature;BME280_humidity;BME280_pressure;Samples;Min_cycle;Max_cycle;Signal;HPM_P1;HPM_P2
2022/05/05 00:00:56;;;;;;;8.18;5.40;;;;;;;;;;5059260;28;20051;-79
2022/05/05 00:03:23;;;;;;;8.75;5.50;;;;;;;;;;5057591;28;20052;-79
2022/05/05 00:05:51;;;;;;;8.93;5.40;;;;;;;;;;5056939;28;20407;-79
2022/05/05 00:08:18;;;;;;;8.02;5.50;;;;;;;;;;5058844;28;20060;-80
2022/05/05 00:16:13;;;;;;;8.30;5.28;;;;;;;;;;5056535;28;20116;-79
2022/05/05 00:18:40;;;;;;;6.78;4.55;;;;;;;;;;5056116;28;20041;-79
2022/05/05 00:21:08;;;;;;;8.07;4.80;;;;;;;;;;5057694;28;20048;-79
2022/05/05 00:23:35;;;;;;;6.45;4.43;;;;;;;;;;5057979;28;20044;-79
2022/05/05 00:26:01;;;;;;;6.85;4.63;;;;;;;;;;5058008;28;20102;-80
2022/05/05 00:28:29;;;;;;;7.45;4.82;;;;;;;;;;5057712;28;20045;-79
2022/05/05 00:30:58;;;;;;;7.55;4.63;;;;;;;;;;5057346;28;20056;-78
2022/05/05 00:33:25;;;;;;;7.28;4.70;;;;;;;;;;5057009;28;20041;-79
2022/05/05 00:35:51;;;;;;;9.32;5.40;;;;;;;;;;5062354;28;20033;-77
2022/05/05 00:38:20;;;;;;;8.63;5.50;;;;;;;;;;5077489;28;20044;-79
2022/05/05 00:40:46;;;;;;;7.97;5.50;;;;;;;;;;5073253;28;20715;-77
2022/05/05 00:43:13;;;;;;;8.73;5.72;;;;;;;;;;5054337;28;20041;-77
2022/05/05 00:45:42;;;;;;;11.25;6.97;;;;;;;;;;5057008;28;20045;-78
2022/05/05 00:48:12;;;;;;;10.85;6.90;;;;;;;;;;5074220;28;20052;-76
2022/05/05 00:50:39;;;;;;;12.15;6.40;;;;;;;;;;5073709;28;20049;-78
2022/05/05 00:53:06;;;;;;;8.65;5.75;;;;;;;;;;5077017;28;20074;-79
2022/05/05 00:55:41;;;;;;;10.18;7.07;;;;;;;;;;5076906;28;20056;-79
2022/05/05 00:58:08;;;;;;;9.32;6.25;;;;;;;;;;5076610;28;20075;-79
2022/05/05 01:00:35;;;;;;;10.10;5.60;;;;;;;;;;5074953;28;20044;-78
2022/05/05 01:03:03;;;;;;;10.75;6.65;;;;;;;;;;5075925;28;20123;-78
2022/05/05 01:05:32;;;;;;;13.05;7.55;;;;;;;;;;5074404;28;20529;-79
2022/05/05 01:07:59;;;;;;;11.57;7.07;;;;;;;;;;5074340;28;20511;-79
2022/05/05 01:10:29;;;;;;;11.57;7.00;;;;;;;;;;5074989;28;20048;-79
2022/05/05 01:12:58;;;;;;;10.10;6.75;;;;;;;;;;5076031;28;20055;-79
2022/05/05 01:15:25;;;;;;;9.57;5.65;;;;;;;;;;5076522;28;20040;-79
2022/05/05 01:17:52;;;;;;;9.30;5.80;;;;;;;;;;5077832;28;20131;-80
2022/05/05 01:20:22;;;;;;;10.98;6.72;;;;;;;;;;5076546;28;20064;-80
2022/05/05 01:22:53;;;;;;;12.07;7.82;;;;;;;;;;5076975;28;20052;-77
2022/05/05 01:28:14;;;;;;;9.73;6.50;;;;;;;;;;5077238;28;20079;-80
2022/05/05 01:30:42;;;;;;;9.98;6.55;;;;;;;;;;5073436;28;20127;-77
2022/05/05 01:33:17;;;;;;;11.65;5.97;;;;;;;;;;5076539;28;20052;-80
2022/05/05 01:35:48;;;;;;;12.02;6.30;;;;;;;;;;5076848;28;20443;-78
2022/05/05 01:38:19;;;;;;;8.88;5.68;;;;;;;;;;5078444;28;20053;-78
2022/05/05 01:40:47;;;;;;;8.32;5.78;;;;;;;;;;5077870;28;20445;-78
2022/05/05 01:43:14;;;;;;;8.98;4.18;;;;;;;;;;5079917;28;20490;-79
2022/05/05 01:45:41;;;;;;;8.13;5.13;;;;;;;;;;5073908;28;20070;-80
2022/05/05 01:48:09;;;;;;;9.63;5.60;;;;;;;;;;5056063;28;20550;-79
2022/05/05 01:50:36;;;;;;;11.85;6.80;;;;;;;;;;5055219;28;20048;-77
2022/05/05 01:53:04;;;;;;;8.55;5.38;;;;;;;;;;5055642;28;20073;-78
2022/05/05 01:55:33;;;;;;;10.73;5.75;;;;;;;;;;5055051;28;20095;-78
2022/05/05 01:58:03;;;;;;;9.90;5.60;;;;;;;;;;5054560;28;20049;-79
2022/05/05 02:00:31;;;;;;;11.32;6.38;;;;;;;;;;5055338;28;20053;-79
2022/05/05 02:02:58;;;;;;;11.00;6.38;;;;;;;;;;5055581;28;20420;-79
2022/05/05 02:05:26;;;;;;;13.32;6.40;;;;;;;;;;5054817;28;20079;-79
2022/05/05 02:07:53;;;;;;;11.13;6.45;;;;;;;;;;5055629;28;20053;-80
2022/05/05 02:10:21;;;;;;;11.65;6.43;;;;;;;;;;5056078;28;20080;-81
2022/05/05 02:12:51;;;;;;;10.07;6.47;;;;;;;;;;5056846;28;20551;-80
2022/05/05 02:15:18;;;;;;;12.13;7.13;;;;;;;;;;5056235;28;20124;-80
2022/05/05 02:17:45;;;;;;;11.35;6.18;;;;;;;;;;5058286;28;20286;-80
2022/05/05 02:20:13;;;;;;;13.40;7.05;;;;;;;;;;5057242;28;20454;-76
2022/05/05 02:22:40;;;;;;;11.52;5.88;;;;;;;;;;5056308;28;20049;-77
2022/05/05 02:25:09;;;;;;;10.63;6.25;;;;;;;;;;5056976;28;20049;-78
2022/05/05 02:27:50;;;;;;;10.48;5.85;;;;;;;;;;5057100;28;20466;-78
2022/05/05 02:30:17;;;;;;;11.77;6.13;;;;;;;;;;5056669;28;20049;-79
2022/05/05 02:32:44;;;;;;;12.57;7.05;;;;;;;;;;5057278;28;20041;-78
2022/05/05 02:35:11;;;;;;;11.25;6.10;;;;;;;;;;5058797;28;20052;-79
2022/05/05 02:40:23;;;;;;;10.70;6.60;;;;;;;;;;5061118;28;20123;-80
2022/05/05 02:42:51;;;;;;;12.02;6.88;;;;;;;;;;5064729;28;20044;-79
2022/05/05 02:45:18;;;;;;;11.45;6.75;;;;;;;;;;5063860;28;20041;-79
2022/05/05 02:47:47;;;;;;;12.65;7.25;;;;;;;;;;5085135;28;20049;-79
2022/05/05 02:50:14;;;;;;;10.10;5.88;;;;;;;;;;5081025;28;20055;-79
2022/05/05 02:52:41;;;;;;;9.93;6.03;;;;;;;;;;5077894;28;20041;-77
2022/05/05 02:55:08;;;;;;;9.50;5.07;;;;;;;;;;5076028;28;20048;-78
2022/05/05 02:57:35;;;;;;;8.52;4.50;;;;;;;;;;5079681;28;20066;-80
2022/05/05 03:00:07;;;;;;;7.05;4.18;;;;;;;;;;5080149;28;20106;-79
2022/05/05 03:02:34;;;;;;;6.53;3.83;;;;;;;;;;5080864;28;20072;-80
2022/05/05 03:05:01;;;;;;;7.50;3.78;;;;;;;;;;5079888;28;20056;-80
2022/05/05 03:07:27;;;;;;;5.75;3.70;;;;;;;;;;5080068;28;20075;-80
2022/05/05 03:09:54;;;;;;;5.55;3.60;;;;;;;;;;5079624;28;20055;-78
2022/05/05 03:12:21;;;;;;;5.45;3.50;;;;;;;;;;5079653;28;20048;-79
2022/05/05 03:14:49;;;;;;;6.18;3.45;;;;;;;;;;5078633;28;20074;-80
2022/05/05 03:17:17;;;;;;;6.80;3.65;;;;;;;;;;5077840;28;20048;-79
2022/05/05 03:19:44;;;;;;;6.68;3.65;;;;;;;;;;5077828;28;20041;-79
2022/05/05 03:22:10;;;;;;;6.63;3.42;;;;;;;;;;5077183;28;20714;-79
2022/05/05 03:24:37;;;;;;;7.07;3.55;;;;;;;;;;5077765;28;20095;-79
2022/05/05 03:27:05;;;;;;;5.32;3.30;;;;;;;;;;5078843;28;20582;-78
2022/05/05 03:29:33;;;;;;;5.43;3.38;;;;;;;;;;5077120;28;20044;-78
2022/05/05 03:32:00;;;;;;;6.15;3.90;;;;;;;;;;5090842;28;20052;-79
2022/05/05 03:34:28;;;;;;;4.80;3.25;;;;;;;;;;5099473;28;20055;-79
2022/05/05 03:36:55;;;;;;;5.50;3.60;;;;;;;;;;5088595;28;20037;-77
2022/05/05 03:39:22;;;;;;;5.93;3.45;;;;;;;;;;5075409;28;20502;-78
2022/05/05 03:41:48;;;;;;;7.03;4.10;;;;;;;;;;5076548;28;20048;-79
2022/05/05 03:44:15;;;;;;;5.85;3.35;;;;;;;;;;5076333;28;20537;-77
2022/05/05 03:46:42;;;;;;;5.80;3.70;;;;;;;;;;5074784;28;20048;-78
2022/05/05 03:49:10;;;;;;;6.07;3.60;;;;;;;;;;5074812;28;20044;-77
2022/05/05 03:51:38;;;;;;;6.38;3.78;;;;;;;;;;5074713;28;20404;-77
2022/05/05 03:54:05;;;;;;;6.55;3.55;;;;;;;;;;5077149;28;20097;-79
2022/05/05 03:56:32;;;;;;;6.45;3.90;;;;;;;;;;5077786;28;20436;-79
2022/05/05 03:58:58;;;;;;;6.28;3.97;;;;;;;;;;5078779;28;20467;-79
2022/05/05 04:01:25;;;;;;;6.07;3.90;;;;;;;;;;5077840;28;20442;-79
2022/05/05 04:03:52;;;;;;;6.15;4.28;;;;;;;;;;5078860;28;20051;-79
2022/05/05 04:06:20;;;;;;;5.57;3.92;;;;;;;;;;5076291;28;20040;-78
2022/05/05 04:08:48;;;;;;;5.97;3.80;;;;;;;;;;5074417;28;20041;-77
2022/05/05 04:11:15;;;;;;;7.85;4.13;;;;;;;;;;5074247;28;20097;-78
2022/05/05 04:13:42;;;;;;;7.90;4.38;;;;;;;;;;5074252;28;20139;-78
2022/05/05 04:16:10;;;;;;;7.03;4.68;;;;;;;;;;5073691;28;20053;-77
2022/05/05 04:18:37;;;;;;;7.25;4.72;;;;;;;;;;5075005;28;20498;-78
2022/05/05 04:21:04;;;;;;;7.18;5.20;;;;;;;;;;5078344;28;20510;-78
2022/05/05 04:23:31;;;;;;;9.20;6.47;;;;;;;;;;5077495;28;20049;-79
2022/05/05 04:25:59;;;;;;;10.23;7.18;;;;;;;;;;5075477;28;20462;-79
2022/05/05 04:28:27;;;;;;;13.95;8.10;;;;;;;;;;5079447;28;20049;-78
2022/05/05 04:30:54;;;;;;;12.32;7.32;;;;;;;;;;5080128;28;20051;-77
2022/05/05 04:33:21;;;;;;;12.13;8.23;;;;;;;;;;5074375;28;20107;-78
2022/05/05 04:35:48;;;;;;;13.80;7.35;;;;;;;;;;5073954;28;20518;-78
2022/05/05 04:38:15;;;;;;;13.48;7.28;;;;;;;;;;5074614;28;20051;-79
2022/05/05 04:40:42;;;;;;;11.73;6.60;;;;;;;;;;5075012;28;20044;-78
2022/05/05 04:43:10;;;;;;;7.00;4.90;;;;;;;;;;5074655;28;20502;-76
2022/05/05 04:45:37;;;;;;;8.05;4.75;;;;;;;;;;5072209;28;20044;-78
2022/05/05 04:48:04;;;;;;;6.60;4.35;;;;;;;;;;5056574;28;20562;-77
2022/05/05 04:50:31;;;;;;;7.38;4.53;;;;;;;;;;5054213;28;20049;-78
2022/05/05 04:52:58;;;;;;;6.82;4.28;;;;;;;;;;5054086;28;20084;-78
2022/05/05 04:55:25;;;;;;;6.88;4.05;;;;;;;;;;5053845;28;20052;-78
2022/05/05 04:57:52;;;;;;;6.40;4.22;;;;;;;;;;5055759;28;20056;-79
2022/05/05 05:00:21;;;;;;;6.18;4.13;;;;;;;;;;5059038;28;20091;-78
2022/05/05 05:02:48;;;;;;;7.05;4.53;;;;;;;;;;5057557;28;20057;-79
2022/05/05 05:05:15;;;;;;;7.10;4.07;;;;;;;;;;5055550;28;20049;-78
2022/05/05 05:07:41;;;;;;;6.72;4.20;;;;;;;;;;5057116;28;20435;-79
2022/05/05 05:10:09;;;;;;;8.00;4.72;;;;;;;;;;5056030;28;20049;-78
2022/05/05 05:12:36;;;;;;;8.43;4.47;;;;;;;;;;5054618;28;20053;-77
2022/05/05 05:15:04;;;;;;;7.28;4.80;;;;;;;;;;5064872;22;20062;-78
2022/05/05 05:17:32;;;;;;;7.43;4.60;;;;;;;;;;5015547;28;20046;-79
2022/05/05 05:19:59;;;;;;;6.70;4.57;;;;;;;;;;5016240;28;20050;-78
2022/05/05 05:22:26;;;;;;;6.20;4.25;;;;;;;;;;5014964;28;20077;-78
2022/05/05 05:24:53;;;;;;;7.13;5.38;;;;;;;;;;5015698;28;20081;-78
2022/05/05 05:27:19;;;;;;;7.57;4.78;;;;;;;;;;5015819;28;20042;-78
2022/05/05 05:29:46;;;;;;;7.75;5.40;;;;;;;;;;5014391;28;20057;-78
2022/05/05 05:32:14;;;;;;;8.90;5.78;;;;;;;;;;5014988;28;20508;-79
2022/05/05 05:34:42;;;;;;;7.97;4.80;;;;;;;;;;5014061;28;20084;-78
2022/05/05 05:37:09;;;;;;;10.23;6.28;;;;;;;;;;5014525;28;20058;-78
2022/05/05 05:39:37;;;;;;;9.48;6.05;;;;;;;;;;5013863;28;20096;-78
2022/05/05 05:42:06;;;;;;;9.55;5.53;;;;;;;;;;5013842;28;20054;-79
2022/05/05 05:44:33;;;;;;;9.18;5.80;;;;;;;;;;5013785;28;20133;-79
2022/05/05 05:46:59;;;;;;;7.50;5.28;;;;;;;;;;5014448;28;20050;-78
2022/05/05 05:49:26;;;;;;;7.43;4.97;;;;;;;;;;5013843;28;20046;-79
2022/05/05 05:51:54;;;;;;;8.10;5.25;;;;;;;;;;5014060;28;20046;-77
2022/05/05 05:54:21;;;;;;;9.95;5.72;;;;;;;;;;5017764;28;20068;-78
2022/05/05 05:56:48;;;;;;;7.65;5.32;;;;;;;;;;5017740;28;20050;-78
2022/05/05 05:59:15;;;;;;;8.18;5.25;;;;;;;;;;5017867;28;20476;-79
2022/05/05 06:04:27;;;;;;;8.98;5.80;;;;;;;;;;5018338;28;20062;-79
2022/05/05 06:06:55;;;;;;;10.00;5.68;;;;;;;;;;5018253;28;20084;-78
2022/05/05 06:09:22;;;;;;;8.98;6.57;;;;;;;;;;5018458;28;20053;-78
2022/05/05 06:11:49;;;;;;;8.10;5.55;;;;;;;;;;5017805;28;20046;-78
2022/05/05 06:14:16;;;;;;;8.68;5.32;;;;;;;;;;5017506;28;20085;-77
2022/05/05 06:16:42;;;;;;;8.73;6.10;;;;;;;;;;4978709;28;1142191;-77
2022/05/05 06:19:09;;;;;;;8.45;6.70;;;;;;;;;;5018834;28;20420;-77
2022/05/05 06:21:36;;;;;;;13.48;7.75;;;;;;;;;;5018217;28;20388;-78
2022/05/05 06:24:05;;;;;;;9.60;7.10;;;;;;;;;;5019011;28;20081;-78
2022/05/05 06:26:32;;;;;;;11.60;8.48;;;;;;;;;;5021642;28;20046;-79
2022/05/05 06:28:59;;;;;;;10.85;8.00;;;;;;;;;;5022467;28;20050;-78
2022/05/05 06:31:26;;;;;;;10.70;7.68;;;;;;;;;;5022262;28;20053;-79
2022/05/05 06:33:53;;;;;;;13.15;8.88;;;;;;;;;;5019872;28;20104;-79
2022/05/05 06:36:20;;;;;;;12.27;8.07;;;;;;;;;;5020295;28;20054;-79
2022/05/05 06:38:47;;;;;;;10.65;7.25;;;;;;;;;;5020478;28;20045;-79
2022/05/05 06:41:15;;;;;;;10.70;7.35;;;;;;;;;;5020216;28;20054;-78
2022/05/05 06:43:42;;;;;;;12.25;7.78;;;;;;;;;;5020414;28;20053;-78
2022/05/05 06:46:09;;;;;;;10.75;7.80;;;;;;;;;;5026511;28;20099;-77
2022/05/05 06:48:36;;;;;;;11.75;8.60;;;;;;;;;;5040356;28;20092;-78
2022/05/05 06:51:03;;;;;;;12.70;7.78;;;;;;;;;;5039037;28;20049;-79
2022/05/05 06:53:30;;;;;;;11.27;7.78;;;;;;;;;;5038909;28;20107;-78
2022/05/05 06:55:58;;;;;;;13.55;8.75;;;;;;;;;;5038223;28;20045;-78
2022/05/05 06:58:27;;;;;;;11.60;7.95;;;;;;;;;;5038361;28;20049;-79
2022/05/05 07:03:38;;;;;;;10.45;7.50;;;;;;;;;;5038226;28;20103;-76
2022/05/05 07:06:05;;;;;;;11.15;7.93;;;;;;;;;;5042073;28;20049;-76
2022/05/05 07:11:15;;;;;;;14.60;9.88;;;;;;;;;;5022066;28;20054;-77
2022/05/05 07:13:44;;;;;;;14.38;9.88;;;;;;;;;;5014603;28;20746;-77
2022/05/05 07:16:10;;;;;;;15.80;8.75;;;;;;;;;;5015883;28;20104;-76
2022/05/05 07:18:38;;;;;;;12.98;8.40;;;;;;;;;;5015143;28;20050;-78
2022/05/05 07:21:04;;;;;;;14.23;9.63;;;;;;;;;;5015080;28;20488;-77
2022/05/05 07:23:32;;;;;;;13.43;9.18;;;;;;;;;;5015020;28;20100;-78
2022/05/05 07:25:59;;;;;;;14.00;9.95;;;;;;;;;;5015113;28;20464;-77
2022/05/05 07:28:26;;;;;;;12.40;9.07;;;;;;;;;;5014769;28;20124;-77
2022/05/05 07:30:54;;;;;;;12.43;9.55;;;;;;;;;;5014336;28;20057;-78
2022/05/05 07:33:22;;;;;;;12.65;9.57;;;;;;;;;;5015162;28;20049;-77
2022/05/05 07:35:49;;;;;;;13.45;9.63;;;;;;;;;;5013889;28;20046;-77
2022/05/05 07:38:16;;;;;;;13.77;10.07;;;;;;;;;;5014830;28;20057;-78
2022/05/05 07:40:43;;;;;;;13.02;9.63;;;;;;;;;;5015992;28;20105;-80
2022/05/05 07:43:10;;;;;;;14.95;9.77;;;;;;;;;;5015818;28;20046;-78
2022/05/05 07:45:37;;;;;;;13.40;10.00;;;;;;;;;;5015596;28;20050;-78
2022/05/05 07:48:06;;;;;;;14.10;9.45;;;;;;;;;;5015438;28;20420;-77
2022/05/05 07:50:33;;;;;;;12.35;9.25;;;;;;;;;;5015200;28;20050;-77
2022/05/05 07:53:00;;;;;;;11.88;9.15;;;;;;;;;;5015149;28;20046;-77
2022/05/05 07:55:26;;;;;;;13.90;9.57;;;;;;;;;;5014448;28;20049;-76
2022/05/05 07:57:53;;;;;;;12.07;8.90;;;;;;;;;;5015057;28;20054;-77
2022/05/05 08:00:21;;;;;;;13.77;9.18;;;;;;;;;;5014363;28;20129;-76
2022/05/05 08:02:48;;;;;;;11.95;8.95;;;;;;;;;;5014510;28;20061;-78
2022/05/05 08:05:17;;;;;;;11.73;8.60;;;;;;;;;;5014173;28;20050;-77
2022/05/05 08:07:47;;;;;;;11.20;8.30;;;;;;;;;;5014970;28;20049;-78
2022/05/05 08:10:14;;;;;;;13.73;8.80;;;;;;;;;;5014953;28;20050;-77
2022/05/05 08:12:41;;;;;;;11.68;8.75;;;;;;;;;;5014122;28;20046;-78
2022/05/05 08:15:08;;;;;;;12.30;8.85;;;;;;;;;;5013023;28;20050;-78
2022/05/05 08:17:35;;;;;;;11.35;8.98;;;;;;;;;;5014548;28;20050;-78
2022/05/05 08:20:03;;;;;;;14.23;9.50;;;;;;;;;;5014554;28;20042;-78
2022/05/05 08:22:31;;;;;;;12.75;9.13;;;;;;;;;;5014009;28;20076;-78
2022/05/05 08:30:27;;;;;;;13.63;9.50;;;;;;;;;;5014079;28;20108;-77
2022/05/05 08:32:54;;;;;;;13.60;9.68;;;;;;;;;;5014077;28;20042;-77
2022/05/05 08:35:22;;;;;;;11.95;9.10;;;;;;;;;;5018478;28;20046;-78
2022/05/05 08:37:51;;;;;;;12.85;8.57;;;;;;;;;;5018820;28;20491;-78
2022/05/05 08:40:18;;;;;;;12.60;9.15;;;;;;;;;;5017645;28;20053;-78
2022/05/05 08:42:45;;;;;;;12.90;10.02;;;;;;;;;;5016632;28;20049;-77
2022/05/05 08:45:12;;;;;;;13.18;9.00;;;;;;;;;;5014912;28;20046;-78
2022/05/05 08:47:41;;;;;;;11.45;8.57;;;;;;;;;;5034250;28;20051;-77
2022/05/05 08:50:10;;;;;;;12.77;8.07;;;;;;;;;;5034766;28;20049;-78
2022/05/05 08:52:44;;;;;;;11.82;8.35;;;;;;;;;;5033445;28;20128;-77
2022/05/05 08:55:15;;;;;;;11.88;8.25;;;;;;;;;;5032862;28;20053;-78
2022/05/05 08:57:43;;;;;;;14.18;9.55;;;;;;;;;;5033891;28;20107;-78
2022/05/05 09:00:11;;;;;;;14.70;8.70;;;;;;;;;;5033328;28;20041;-78
2022/05/05 09:02:38;;;;;;;12.55;9.05;;;;;;;;;;5033265;28;20049;-78
2022/05/05 09:05:06;;;;;;;15.52;11.43;;;;;;;;;;5034134;28;20064;-78
2022/05/05 09:07:47;;;;;;;15.32;10.63;;;;;;;;;;5054570;28;20079;-77
2022/05/05 09:10:16;;;;;;;14.23;10.63;;;;;;;;;;5052165;28;20479;-78
2022/05/05 09:12:55;;;;;;;12.68;10.00;;;;;;;;;;5034102;28;20068;-77
2022/05/05 09:15:31;;;;;;;14.13;10.02;;;;;;;;;;5031170;28;20050;-76
2022/05/05 09:18:12;;;;;;;14.63;9.98;;;;;;;;;;5031252;28;20124;-76
2022/05/05 09:20:39;;;;;;;12.75;9.63;;;;;;;;;;5031256;28;20133;-76
2022/05/05 09:23:06;;;;;;;15.15;10.57;;;;;;;;;;5030981;28;20056;-77
2022/05/05 09:25:48;;;;;;;14.80;10.90;;;;;;;;;;5030697;28;20492;-76
2022/05/05 09:28:19;;;;;;;14.63;10.75;;;;;;;;;;5030886;28;20045;-77
2022/05/05 09:30:47;;;;;;;15.60;11.45;;;;;;;;;;5030262;28;20049;-77
2022/05/05 09:33:15;;;;;;;15.73;11.65;;;;;;;;;;5030832;28;20068;-76
2022/05/05 09:35:42;;;;;;;12.60;9.63;;;;;;;;;;5030565;28;20064;-76
2022/05/05 09:38:09;;;;;;;10.88;8.80;;;;;;;;;;5031018;28;20053;-77
2022/05/05 09:40:36;;;;;;;11.65;8.23;;;;;;;;;;5031539;28;20115;-77
2022/05/05 09:43:04;;;;;;;24.60;16.50;;;;;;;;;;5031210;28;20107;-77
2022/05/05 09:45:32;;;;;;;28.95;18.60;;;;;;;;;;5030534;28;20060;-76
2022/05/05 09:48:01;;;;;;;16.73;10.40;;;;;;;;;;5030302;28;20045;-77
2022/05/05 09:50:29;;;;;;;14.63;10.18;;;;;;;;;;5030775;28;20049;-77
2022/05/05 09:58:35;;;;;;;13.20;8.90;;;;;;;;;;5030989;28;20448;-77
2022/05/05 10:01:09;;;;;;;13.07;8.88;;;;;;;;;;5031074;28;20056;-76
2022/05/05 10:04:05;;;;;;;11.77;8.13;;;;;;;;;;5031149;28;20068;-77
2022/05/05 10:06:34;;;;;;;10.82;7.72;;;;;;;;;;5030803;28;20056;-77
2022/05/05 10:09:03;;;;;;;10.73;8.38;;;;;;;;;;5030667;28;20137;-76
2022/05/05 10:11:30;;;;;;;10.38;7.85;;;;;;;;;;5030969;28;20528;-77
2022/05/05 10:14:00;;;;;;;8.30;6.57;;;;;;;;;;5030423;28;20054;-76
2022/05/05 10:16:27;;;;;;;17.45;12.55;;;;;;;;;;5030333;28;20531;-77
2022/05/05 10:18:54;;;;;;;11.80;9.35;;;;;;;;;;5030970;28;20073;-77
2022/05/05 10:21:32;;;;;;;11.75;9.15;;;;;;;;;;5030827;28;20048;-76
2022/05/05 10:24:07;;;;;;;9.93;7.53;;;;;;;;;;5033052;28;20053;-75
2022/05/05 10:26:34;;;;;;;11.43;7.88;;;;;;;;;;5031257;28;20049;-75
2022/05/05 10:29:03;;;;;;;9.18;7.45;;;;;;;;;;5040981;28;20251;-80
2022/05/05 10:31:43;;;;;;;9.27;6.30;;;;;;;;;;5042453;28;20041;-79
2022/05/05 10:34:15;;;;;;;13.63;8.00;;;;;;;;;;5031395;28;20049;-77
2022/05/05 10:36:59;;;;;;;11.05;7.82;;;;;;;;;;5031457;28;20053;-79
2022/05/05 10:39:27;;;;;;;9.80;7.22;;;;;;;;;;5036213;28;20049;-78
2022/05/05 10:42:23;;;;;;;10.32;6.72;;;;;;;;;;5037377;28;20132;-76
2022/05/05 10:45:15;;;;;;;10.90;7.40;;;;;;;;;;5036903;28;20057;-77
2022/05/05 10:48:29;;;;;;;10.43;7.57;;;;;;;;;;5034692;28;20053;-77
2022/05/05 10:51:07;;;;;;;9.60;6.20;;;;;;;;;;5034921;28;20053;-77
2022/05/05 10:53:44;;;;;;;11.80;8.88;;;;;;;;;;5034884;28;20069;-76
2022/05/05 10:56:31;;;;;;;9.18;6.88;;;;;;;;;;5037385;28;20117;-78
2022/05/05 10:59:06;;;;;;;9.20;6.50;;;;;;;;;;5038140;28;20083;-77
2022/05/05 11:02:04;;;;;;;12.20;8.80;;;;;;;;;;5036518;28;20053;-78
2022/05/05 11:04:32;;;;;;;9.88;7.00;;;;;;;;;;5033426;28;20049;-77
2022/05/05 11:07:30;;;;;;;9.70;7.03;;;;;;;;;;5033549;28;20049;-77
2022/05/05 11:10:00;;;;;;;14.15;9.77;;;;;;;;;;5034149;28;20049;-76
2022/05/05 11:12:33;;;;;;;12.55;8.07;;;;;;;;;;5033916;28;20109;-77
2022/05/05 11:23:43;;;;;;;11.10;7.70;;;;;;;;;;5055735;28;20055;-80
2022/05/05 11:26:12;;;;;;;10.10;7.45;;;;;;;;;;5056781;28;20545;-80
2022/05/05 11:28:39;;;;;;;9.75;7.28;;;;;;;;;;5036902;28;20103;-80
2022/05/05 11:31:16;;;;;;;9.90;7.47;;;;;;;;;;5036026;28;20041;-77
2022/05/05 11:33:48;;;;;;;13.13;8.85;;;;;;;;;;5036641;28;20404;-79
2022/05/05 11:36:15;;;;;;;11.07;7.80;;;;;;;;;;5035333;28;20407;-80
2022/05/05 11:38:43;;;;;;;9.80;7.97;;;;;;;;;;5037108;28;20584;-79
2022/05/05 11:41:10;;;;;;;10.13;7.57;;;;;;;;;;5037631;28;20103;-80
2022/05/05 11:46:24;;;;;;;10.85;7.97;;;;;;;;;;5028031;28;20136;-78
2022/05/05 11:48:57;;;;;;;12.32;8.18;;;;;;;;;;5016285;28;20499;-80
2022/05/05 11:51:25;;;;;;;10.75;8.73;;;;;;;;;;5015540;28;20054;-80
2022/05/05 11:54:06;;;;;;;15.32;11.65;;;;;;;;;;5016838;28;20459;-80
2022/05/05 11:56:33;;;;;;;;;;;;;;;;;;5017473;28;20117;-79
2022/05/05 12:02:10;;;;;;;10.75;7.53;;;;;;;;;;5017679;28;20100;-80
2022/05/05 12:04:40;;;;;;;9.52;7.15;;;;;;;;;;5016348;28;20056;-78
2022/05/05 12:07:08;;;;;;;;;;;;;;;;;;5017854;28;20041;-79
2022/05/05 12:09:36;;;;;;;10.75;7.38;;;;;;;;;;5016098;28;19921;-79
2022/05/05 12:12:11;;;;;;;8.93;6.82;;;;;;;;;;5016295;28;20064;-79
2022/05/05 12:14:42;;;;;;;12.00;8.05;;;;;;;;;;5019519;28;20077;-77
2022/05/05 12:17:13;;;;;;;10.27;7.72;;;;;;;;;;5021691;28;20100;-80
2022/05/05 12:19:51;;;;;;;11.73;9.07;;;;;;;;;;5017172;28;20050;-79
2022/05/05 12:22:23;;;;;;;13.13;7.75;;;;;;;;;;5017705;28;20046;-79
2022/05/05 12:24:49;;;;;;;12.05;7.72;;;;;;;;;;5018298;28;20042;-80
2022/05/05 12:27:17;;;;;;;10.38;7.35;;;;;;;;;;5014828;28;20107;-79
2022/05/05 12:29:45;;;;;;;10.98;7.72;;;;;;;;;;5015833;28;20045;-78
2022/05/05 12:32:13;;;;;;;10.05;7.55;;;;;;;;;;5014536;28;20119;-78
2022/05/05 12:34:40;;;;;;;9.73;7.18;;;;;;;;;;5014816;28;20050;-80
2022/05/05 12:37:26;;;;;;;9.90;7.63;;;;;;;;;;5014573;28;20073;-79
2022/05/05 12:39:57;;;;;;;11.13;8.10;;;;;;;;;;5015566;28;20046;-79
2022/05/05 12:42:25;;;;;;;12.68;7.90;;;;;;;;;;5016222;28;20121;-78
2022/05/05 12:44:52;;;;;;;12.60;9.50;;;;;;;;;;5016309;28;20046;-79
2022/05/05 12:47:24;;;;;;;13.27;9.10;;;;;;;;;;5013233;28;20451;-79
2022/05/05 12:49:51;;;;;;;16.05;9.32;;;;;;;;;;5012316;28;20057;-77
2022/05/05 13:00:50;;;;;;;9.68;7.68;;;;;;;;;;5013528;28;20061;-77
2022/05/05 13:03:18;;;;;;;10.02;6.53;;;;;;;;;;5012528;28;20574;-78
2022/05/05 13:05:46;;;;;;;9.85;6.57;;;;;;;;;;5013520;28;20148;-78
2022/05/05 13:08:15;;;;;;;9.52;6.05;;;;;;;;;;5012063;28;20072;-78
2022/05/05 13:10:42;;;;;;;8.00;6.47;;;;;;;;;;5013666;28;20507;-79
2022/05/05 13:13:09;;;;;;;9.07;6.35;;;;;;;;;;5015214;28;20096;-79
2022/05/05 13:15:36;;;;;;;9.57;6.97;;;;;;;;;;5014167;28;20069;-78
2022/05/05 13:18:03;;;;;;;9.10;7.00;;;;;;;;;;5015650;28;20562;-79
2022/05/05 13:20:30;;;;;;;10.02;6.30;;;;;;;;;;5016456;28;20050;-79
2022/05/05 13:22:56;;;;;;;10.15;6.25;;;;;;;;;;5016089;28;20050;-79
2022/05/05 13:25:26;;;;;;;9.35;6.55;;;;;;;;;;5014427;28;20520;-79
2022/05/05 13:27:53;;;;;;;11.00;6.97;;;;;;;;;;5012587;28;20178;-79
2022/05/05 13:30:20;;;;;;;9.43;6.35;;;;;;;;;;5010912;28;20144;-78
2022/05/05 13:32:47;;;;;;;11.95;7.15;;;;;;;;;;5010666;28;20096;-78
2022/05/05 13:35:14;;;;;;;9.00;6.28;;;;;;;;;;5010666;28;20050;-78
2022/05/05 13:37:41;;;;;;;16.27;11.82;;;;;;;;;;5011014;28;20046;-78
2022/05/05 13:40:10;;;;;;;12.93;10.20;;;;;;;;;;5012128;28;20478;-79
2022/05/05 13:42:38;;;;;;;14.30;9.95;;;;;;;;;;5011277;28;20053;-78
2022/05/05 13:45:07;;;;;;;14.82;10.40;;;;;;;;;;5013140;28;20049;-78
2022/05/05 13:47:34;;;;;;;13.88;10.50;;;;;;;;;;5012313;28;20053;-78
2022/05/05 13:50:01;;;;;;;12.85;10.23;;;;;;;;;;5011120;28;20065;-77
2022/05/05 13:52:27;;;;;;;15.48;10.57;;;;;;;;;;5012863;28;20045;-77
2022/05/05 13:54:56;;;;;;;13.93;9.77;;;;;;;;;;5014101;28;20050;-78
2022/05/05 13:57:23;;;;;;;13.25;9.75;;;;;;;;;;5037976;28;20033;-79
2022/05/05 13:59:52;;;;;;;12.65;9.50;;;;;;;;;;5037410;28;20046;-78
2022/05/05 14:02:19;;;;;;;12.82;9.63;;;;;;;;;;5014458;28;20046;-77
2022/05/05 14:04:46;;;;;;;14.13;10.80;;;;;;;;;;5012147;28;20104;-78
2022/05/05 14:07:13;;;;;;;15.00;10.23;;;;;;;;;;5012452;28;20050;-77
2022/05/05 14:12:24;;;;;;;16.83;9.20;;;;;;;;;;5013163;28;20164;-77
2022/05/05 14:14:52;;;;;;;15.38;11.48;;;;;;;;;;5016420;28;20046;-77
2022/05/05 14:17:20;;;;;;;14.98;9.45;;;;;;;;;;5017167;28;20431;-78
2022/05/05 14:19:47;;;;;;;13.10;9.95;;;;;;;;;;5017895;28;20123;-78
2022/05/05 14:22:13;;;;;;;13.13;9.57;;;;;;;;;;5017808;28;20057;-78
2022/05/05 14:24:40;;;;;;;11.98;8.40;;;;;;;;;;5017003;28;20053;-79
2022/05/05 14:27:07;;;;;;;14.20;10.77;;;;;;;;;;5017271;28;20046;-78
2022/05/05 14:29:34;;;;;;;13.65;9.10;;;;;;;;;;5016786;28;20045;-78
2022/05/05 14:32:03;;;;;;;11.60;9.13;;;;;;;;;;5017047;28;20076;-78
2022/05/05 14:34:29;;;;;;;12.65;9.55;;;;;;;;;;5016797;28;20452;-77
2022/05/05 14:36:56;;;;;;;14.38;10.38;;;;;;;;;;5019812;28;20409;-75
2022/05/05 14:39:23;;;;;;;12.70;9.15;;;;;;;;;;5016605;28;20104;-78
2022/05/05 14:41:50;;;;;;;18.00;13.70;;;;;;;;;;5016583;28;20046;-78
2022/05/05 14:44:16;;;;;;;19.10;13.18;;;;;;;;;;5016455;28;20508;-77
2022/05/05 14:46:43;;;;;;;13.35;10.57;;;;;;;;;;5017419;28;20046;-78
2022/05/05 14:49:11;;;;;;;13.15;9.50;;;;;;;;;;5016163;28;20108;-77
2022/05/05 14:51:38;;;;;;;15.80;10.95;;;;;;;;;;5016042;28;20455;-77
2022/05/05 14:54:05;;;;;;;12.90;9.20;;;;;;;;;;5016242;28;20046;-77
2022/05/05 14:56:32;;;;;;;13.18;9.25;;;;;;;;;;5015742;28;20061;-78
2022/05/05 14:59:00;;;;;;;15.88;10.70;;;;;;;;;;5016116;28;20045;-77
2022/05/05 15:01:27;;;;;;;14.05;10.27;;;;;;;;;;5016507;28;20042;-77
2022/05/05 15:03:54;;;;;;;14.02;10.38;;;;;;;;;;5016891;28;20516;-78
2022/05/05 15:06:22;;;;;;;11.82;8.30;;;;;;;;;;5016340;28;20042;-77
2022/05/05 15:08:53;;;;;;;12.98;9.38;;;;;;;;;;5016739;28;20088;-78
2022/05/05 15:11:19;;;;;;;11.18;8.85;;;;;;;;;;5016319;28;20046;-77
2022/05/05 15:13:46;;;;;;;12.20;9.13;;;;;;;;;;5016136;28;20058;-77
2022/05/05 15:16:13;;;;;;;12.50;8.10;;;;;;;;;;5015548;28;20141;-77
2022/05/05 15:18:40;;;;;;;12.02;9.02;;;;;;;;;;5016122;28;20042;-78
2022/05/05 15:21:07;;;;;;;13.68;9.45;;;;;;;;;;5015876;28;20049;-78
2022/05/05 15:23:37;;;;;;;12.15;8.50;;;;;;;;;;5016286;28;20100;-78
2022/05/05 15:26:04;;;;;;;;;;;;;;;;;;5016548;28;20060;-78
2022/05/05 15:28:31;;;;;;;10.73;7.95;;;;;;;;;;5016657;28;19975;-76
2022/05/05 15:31:05;;;;;;;13.05;9.05;;;;;;;;;;5016069;28;20087;-77
2022/05/05 15:33:33;;;;;;;12.50;9.63;;;;;;;;;;5017184;28;20057;-77
2022/05/05 15:36:00;;;;;;;10.68;8.18;;;;;;;;;;5015899;28;20050;-78
2022/05/05 15:38:28;;;;;;;9.68;7.35;;;;;;;;;;5016304;28;20459;-78